Hlavní strana
METAR-TAF:

METAR-TAF

Letiště :

Medicine Hat, Alberta, Kanada

zeměpisná šířka: 50-01N, zeměpisná délka: 110-43W, výška: 717 m

Aktuální stav počasí

Zpráva byla vytvořena před 1 hodinou a 5 minutami, v 10:00 UTC
Jihojihozápadní vítr 2 kt
Teplota -3°C
Vlhkost vzduchu 80%
Tlak 1011 hPa
Viditelnost: 14.5 km
Jasno

METAR: CYXH 211000Z AUTO 20002KT 9SM CLR M03/M06 A2985 RMK SLP132

Čas: 05:05 (11:05 UTC)

Předpověď počasí

Zpráva byla vytvořena před 5 hodinami a 27 minutami, v 05:38 UTC
Předpověď platná od 21 v 06 UTC do 21 v 18 UTC
vítr z různých směrů 3 kt
Viditelnost: 10 km
Jasno
Změna
od 21 v 07 UTC do 21 v 09 UTC
Jihojihozápadní vítr 8 kt

TAF: CYXH 210538Z 2106/2118 VRB03KT P6SM SKC BECMG 2107/2109 21008KT RMK FCST BASED ON AUTO OBS. NXT FCST BY 211200Z

Stav a předpovědi počasí z více než 4 000 letišť (zprávy METAR a TAF).

Červené a žluté tečky na mapě představují dostupné meteorologické stanice.

Když kurzor umístíte na tečku, zobrazí se název stanice.

Pak kliknutím zobrazíte stav a předpověď počasí.

Chcete-li změnit mapu, kliknutím na zelené tlačítko se znaménkem +mapu přiblížíte, kliknutím na zelené tlačítko se znaménkem – mapu oddálíte a kliknutím na zelené šipky přejdete na sousední mapy.


METAR-TAF: